createdAt,value
2022-09-18T00:00:00.319Z,980.1
2022-09-18T00:05:00.288Z,979.7
2022-09-18T00:10:00.285Z,980.1
2022-09-18T00:15:00.375Z,979.9
2022-09-18T00:20:00.277Z,980.1
2022-09-18T00:25:00.286Z,979.9
2022-09-18T00:30:00.286Z,980.1
2022-09-18T00:35:00.295Z,980.1
2022-09-18T00:40:00.351Z,980.6
2022-09-18T00:45:00.302Z,980.6
2022-09-18T00:50:00.359Z,980.6
2022-09-18T00:55:00.319Z,980.8
2022-09-18T01:00:00.304Z,980.6
2022-09-18T01:05:00.312Z,981.4
2022-09-18T01:10:00.320Z,981.4
2022-09-18T01:15:00.320Z,981.7
2022-09-18T01:20:00.315Z,981.9
2022-09-18T01:25:00.337Z,982.3
2022-09-18T01:30:00.335Z,982.3
2022-09-18T01:35:00.345Z,982.5
2022-09-18T01:40:00.506Z,982.7
2022-09-18T01:45:00.350Z,982.3
2022-09-18T01:50:00.484Z,982.3
2022-09-18T01:55:00.363Z,982.3
2022-09-18T02:00:00.365Z,982.7
2022-09-18T02:05:00.954Z,982.7
2022-09-18T02:10:00.949Z,982.5
2022-09-18T02:15:00.960Z,982.7
2022-09-18T02:20:00.988Z,982.7
2022-09-18T02:25:00.957Z,983.2
2022-09-18T02:30:00.972Z,983.2
2022-09-18T02:35:00.996Z,983.2
2022-09-18T02:40:01.051Z,983.4
2022-09-18T02:45:00.999Z,983.6
2022-09-18T02:50:01.027Z,983.6
2022-09-18T02:55:00.985Z,983.6
2022-09-18T03:00:01.031Z,983.6
2022-09-18T03:05:01.000Z,983.6
2022-09-18T03:10:01.017Z,983.6
2022-09-18T03:15:01.030Z,983.4
2022-09-18T03:20:01.025Z,983.6
2022-09-18T03:25:01.025Z,983.6
2022-09-18T03:30:01.051Z,984
2022-09-18T03:35:01.036Z,984.5
2022-09-18T03:40:01.090Z,984.3
2022-09-18T03:45:01.043Z,984.5
2022-09-18T03:50:01.045Z,984.5
2022-09-18T03:55:00.154Z,984.5
2022-09-18T04:00:00.202Z,984.9
2022-09-18T04:05:00.191Z,984.9
2022-09-18T04:10:00.233Z,984.9
2022-09-18T04:15:00.202Z,984.9
2022-09-18T04:20:00.205Z,984.9
2022-09-18T04:25:00.211Z,984.9
2022-09-18T04:30:00.207Z,984.9
2022-09-18T04:35:00.233Z,985.1
2022-09-18T04:40:00.316Z,985.4
2022-09-18T04:45:00.302Z,985.1
2022-09-18T04:50:00.238Z,985.4
2022-09-18T04:55:00.264Z,985.6
2022-09-18T05:00:00.327Z,985.6
2022-09-18T05:05:00.265Z,985.6
2022-09-18T05:10:00.281Z,985.6
2022-09-18T05:15:00.288Z,985.8
2022-09-18T05:20:00.285Z,985.8
2022-09-18T05:25:00.293Z,985.8
2022-09-18T05:30:00.299Z,985.8
2022-09-18T05:35:00.307Z,985.8
2022-09-18T05:40:00.386Z,985.8
2022-09-18T05:45:01.988Z,985.8
2022-09-18T05:50:00.316Z,985.8
2022-09-18T05:55:00.313Z,985.6
2022-09-18T06:00:00.651Z,985.4
2022-09-18T06:05:00.322Z,985.4
2022-09-18T06:10:00.305Z,985.4
2022-09-18T06:15:00.492Z,985.4
2022-09-18T06:20:00.424Z,985.4
2022-09-18T06:25:00.460Z,985.4
2022-09-18T06:30:00.469Z,985.4
2022-09-18T06:35:00.999Z,985.4
2022-09-18T06:40:00.610Z,984.9
2022-09-18T06:45:00.386Z,984.5
2022-09-18T06:50:00.355Z,983.6
2022-09-18T06:55:00.849Z,983.2
2022-09-18T07:00:00.372Z,983.2
2022-09-18T07:05:00.380Z,983
2022-09-18T07:10:00.399Z,982.3
2022-09-18T07:15:00.426Z,982.3
2022-09-18T07:20:00.400Z,981.9
2022-09-18T07:25:00.394Z,981.9
2022-09-18T07:30:00.384Z,981.4
2022-09-18T07:35:00.420Z,981.2
2022-09-18T07:40:00.605Z,981.4
2022-09-18T07:45:00.401Z,981.4
2022-09-18T07:50:00.437Z,981.2
2022-09-18T07:55:00.412Z,980.1
2022-09-18T08:00:00.420Z,979.3
2022-09-18T08:05:00.457Z,978.4
2022-09-18T08:10:00.443Z,975.6
2022-09-18T08:15:00.450Z,975.1
2022-09-18T08:20:00.483Z,974.7
2022-09-18T08:25:00.445Z,975.1
2022-09-18T08:30:00.484Z,975.1
2022-09-18T08:35:00.545Z,975.8
2022-09-18T08:40:01.005Z,976
2022-09-18T08:45:01.052Z,975.6
2022-09-18T08:50:00.582Z,976.7
2022-09-18T08:55:00.477Z,974.9
2022-09-18T09:00:00.482Z,973
2022-09-18T09:05:00.480Z,973.8
2022-09-18T09:10:00.505Z,973.2
2022-09-18T09:15:00.502Z,971.9
2022-09-18T09:20:00.496Z,971.4
2022-09-18T09:25:00.502Z,970.6
2022-09-18T09:30:00.515Z,969.7
2022-09-18T09:35:00.542Z,969.3
2022-09-18T09:40:00.629Z,968.8
2022-09-18T09:45:00.544Z,967.7
2022-09-18T09:50:00.475Z,968
2022-09-18T09:55:00.300Z,965.8
2022-09-18T10:00:00.200Z,964.5
2022-09-18T10:05:00.125Z,963.6
2022-09-18T10:10:00.135Z,964
2022-09-18T10:15:00.126Z,964.7
2022-09-18T10:20:00.158Z,966.4
2022-09-18T10:25:00.148Z,964
2022-09-18T10:30:00.189Z,963.2
2022-09-18T10:35:00.183Z,963
2022-09-18T10:40:00.417Z,962.5
2022-09-18T10:45:02.004Z,961.4
2022-09-18T10:50:00.181Z,960.6
2022-09-18T10:55:00.159Z,959.7
2022-09-18T11:00:00.178Z,960.1
2022-09-18T11:05:00.191Z,960.6
2022-09-18T11:10:00.184Z,960.6
2022-09-18T11:15:00.201Z,961
2022-09-18T11:20:00.198Z,961
2022-09-18T11:25:00.217Z,960.4
2022-09-18T11:30:00.215Z,959.7
2022-09-18T11:35:00.215Z,961
2022-09-18T11:40:00.843Z,961.2
2022-09-18T11:45:00.654Z,961.4
2022-09-18T11:50:00.765Z,961
2022-09-18T11:55:00.453Z,961.9
2022-09-18T12:00:00.314Z,961.9
2022-09-18T12:05:00.248Z,962.3
2022-09-18T12:09:58.889Z,964.5
2022-09-18T12:14:58.908Z,963.8
2022-09-18T12:19:58.903Z,964.5
2022-09-18T12:24:58.895Z,964.7
2022-09-18T12:29:58.920Z,962.7
2022-09-18T12:34:58.910Z,962.3
2022-09-18T12:39:59.634Z,961.9
2022-09-18T12:44:59.575Z,960.6
2022-09-18T12:49:59.571Z,961.2
2022-09-18T12:54:59.575Z,960.1
2022-09-18T12:59:59.585Z,959
2022-09-18T13:04:59.582Z,959.7
2022-09-18T13:09:59.591Z,960.6
2022-09-18T13:14:59.642Z,961.4
2022-09-18T13:20:00.313Z,960.6
2022-09-18T13:25:00.313Z,960.1
2022-09-18T13:30:00.340Z,960.6
2022-09-18T13:35:00.318Z,961
2022-09-18T13:40:11.852Z,960.8
2022-09-18T13:45:00.500Z,960.8
2022-09-18T13:50:00.765Z,961.7
2022-09-18T13:55:00.518Z,961.9
2022-09-18T14:00:00.421Z,961.4
2022-09-18T14:05:00.478Z,961.2
2022-09-18T14:10:03.861Z,959.7
2022-09-18T14:15:00.395Z,957.5
2022-09-18T14:20:00.412Z,959
2022-09-18T14:25:00.352Z,957.1
2022-09-18T14:30:01.011Z,957.3
2022-09-18T14:35:00.566Z,956.7
2022-09-18T14:40:01.035Z,957.3
2022-09-18T14:45:00.498Z,958
2022-09-18T14:50:00.601Z,957.1
2022-09-18T14:55:00.635Z,958.8
2022-09-18T15:00:00.641Z,958.4
2022-09-18T15:05:00.411Z,958
2022-09-18T15:10:00.401Z,959.3
2022-09-18T15:15:00.415Z,960.4
2022-09-18T15:20:00.462Z,959.3
2022-09-18T15:25:00.667Z,959.7
2022-09-18T15:30:00.441Z,960.6
2022-09-18T15:35:00.527Z,960.6
2022-09-18T15:40:00.616Z,961
2022-09-18T15:45:00.484Z,961.4
2022-09-18T15:50:00.443Z,960.1
2022-09-18T15:55:00.262Z,959.7
2022-09-18T16:00:00.222Z,959.3
2022-09-18T16:05:00.169Z,959.3
2022-09-18T16:10:00.188Z,959.7
2022-09-18T16:15:00.196Z,960.1
2022-09-18T16:20:00.205Z,960.6
2022-09-18T16:25:00.205Z,961.4
2022-09-18T16:30:00.223Z,961.2
2022-09-18T16:35:00.211Z,962.3
2022-09-18T16:40:00.307Z,962.1
2022-09-18T16:45:00.235Z,962.7
2022-09-18T16:50:00.259Z,962.7
2022-09-18T16:55:00.200Z,962.7
2022-09-18T17:00:00.233Z,963.6
2022-09-18T17:05:00.207Z,963.6
2022-09-18T17:10:00.237Z,964.9
2022-09-18T17:15:00.255Z,964.9
2022-09-18T17:20:00.258Z,965.6
2022-09-18T17:25:00.258Z,965.4
2022-09-18T17:30:00.276Z,967.1
2022-09-18T17:35:00.281Z,966.9
2022-09-18T17:40:00.467Z,967.5
2022-09-18T17:45:00.281Z,966.7
2022-09-18T17:50:00.292Z,967.3
2022-09-18T17:55:00.283Z,967.5
2022-09-18T18:00:00.330Z,967.7
2022-09-18T18:05:00.308Z,966.7
2022-09-18T18:10:00.327Z,967.1
2022-09-18T18:15:00.443Z,967.5
2022-09-18T18:20:00.317Z,967.7
2022-09-18T18:25:00.321Z,967.7
2022-09-18T18:30:00.338Z,968
2022-09-18T18:35:00.331Z,968
2022-09-18T18:40:00.415Z,966.7
2022-09-18T18:45:00.380Z,967.3
2022-09-18T18:50:00.355Z,967.5
2022-09-18T18:55:00.380Z,968
2022-09-18T19:00:00.376Z,967.5
2022-09-18T19:05:00.381Z,967.3
2022-09-18T19:10:00.416Z,968.4
2022-09-18T19:15:00.509Z,966.7
2022-09-18T19:20:00.397Z,967.1
2022-09-18T19:25:00.414Z,967.5
2022-09-18T19:30:00.400Z,968.6
2022-09-18T19:35:00.423Z,968.8
2022-09-18T19:40:00.475Z,969.3
2022-09-18T19:45:00.424Z,969.5
2022-09-18T19:50:00.423Z,969.3
2022-09-18T19:55:00.478Z,969.9
2022-09-18T20:00:00.524Z,970.1
2022-09-18T20:05:00.920Z,969.7
2022-09-18T20:10:00.737Z,971
2022-09-18T20:15:00.478Z,970.1
2022-09-18T20:20:00.530Z,969.7
2022-09-18T20:25:00.448Z,969.7
2022-09-18T20:30:00.459Z,970.1
2022-09-18T20:35:02.968Z,969.9
2022-09-18T20:40:00.556Z,969.7
2022-09-18T20:45:00.483Z,969.9
2022-09-18T20:50:00.496Z,969.3
2022-09-18T20:55:00.480Z,969.3
2022-09-18T21:00:00.501Z,969.3
2022-09-18T21:05:00.505Z,969.7
2022-09-18T21:10:00.484Z,970.1
2022-09-18T21:15:00.519Z,970.1
2022-09-18T21:20:00.508Z,969.7
2022-09-18T21:25:00.637Z,970.1
2022-09-18T21:30:00.525Z,971
2022-09-18T21:35:00.519Z,970.8
2022-09-18T21:40:01.053Z,969.7
2022-09-18T21:45:00.646Z,971.4
2022-09-18T21:50:00.544Z,971
2022-09-18T21:55:00.422Z,971.4
2022-09-18T22:00:00.232Z,971
2022-09-18T22:05:00.126Z,971
2022-09-18T22:10:00.762Z,971.9
2022-09-18T22:15:00.170Z,972.3
2022-09-18T22:20:00.160Z,973.2
2022-09-18T22:25:00.142Z,973.4
2022-09-18T22:30:00.240Z,973.2
2022-09-18T22:35:00.372Z,974.5
2022-09-18T22:40:00.313Z,973.8
2022-09-18T22:45:00.167Z,974
2022-09-18T22:50:00.267Z,974.3
2022-09-18T22:55:00.751Z,974
2022-09-18T23:00:00.554Z,974.7
2022-09-18T23:05:00.300Z,974.9
2022-09-18T23:10:00.412Z,975.4
2022-09-18T23:15:00.840Z,974.9
2022-09-18T23:20:00.349Z,974.7
2022-09-18T23:25:00.172Z,975.1
2022-09-18T23:30:00.504Z,974.9
2022-09-18T23:35:00.218Z,975.4
2022-09-18T23:40:00.313Z,975.4
2022-09-18T23:45:00.370Z,975.8
2022-09-18T23:50:00.214Z,974.9
2022-09-18T23:55:00.227Z,975.8
